createdAt,value
2019-01-24T00:01:28.551Z,94730.73
2019-01-24T00:03:57.032Z,94731.95
2019-01-24T00:06:27.967Z,94740.34
2019-01-24T00:08:56.379Z,94742.26
2019-01-24T00:11:25.080Z,94744.91
2019-01-24T00:13:53.487Z,94747.91
2019-01-24T00:16:21.914Z,94748.78
2019-01-24T00:18:50.319Z,94742.91
2019-01-24T00:21:18.725Z,94755.39
2019-01-24T00:23:47.378Z,94751.38
2019-01-24T00:26:15.981Z,94756.56
2019-01-24T00:28:45.402Z,94758.19
2019-01-24T00:31:13.807Z,94763.98
2019-01-24T00:33:42.639Z,94769.94
2019-01-24T00:36:12.583Z,94765.74
2019-01-24T00:38:40.991Z,94767.66
2019-01-24T00:41:09.433Z,94771.67
2019-01-24T00:43:37.909Z,94768.34
2019-01-24T00:46:06.316Z,94775.25
2019-01-24T00:48:34.862Z,94776.27
2019-01-24T00:51:04.771Z,94781.94
2019-01-24T00:53:33.181Z,94789.72
2019-01-24T00:56:01.727Z,94790.20
2019-01-24T00:58:30.130Z,94789.39
2019-01-24T01:00:58.617Z,94796.69
2019-01-24T01:03:27.054Z,94803.73
2019-01-24T01:05:55.528Z,94806.77
2019-01-24T01:08:24.111Z,94815.52
2019-01-24T01:10:52.719Z,94813.61
2019-01-24T01:13:21.129Z,94816.53
2019-01-24T01:15:49.533Z,94815.23
2019-01-24T01:18:18.039Z,94817.50
2019-01-24T01:20:46.441Z,94824.52
2019-01-24T01:23:14.924Z,94828.66
2019-01-24T01:25:43.475Z,94834.58
2019-01-24T01:28:11.959Z,94830.61
2019-01-24T01:30:40.559Z,94837.53
2019-01-24T01:33:09.154Z,94838.17
2019-01-24T01:35:37.555Z,94840.53
2019-01-24T01:38:06.395Z,94846.44
2019-01-24T01:40:34.831Z,94849.96
2019-01-24T01:43:03.239Z,94850.45
2019-01-24T01:45:31.639Z,94853.73
2019-01-24T01:48:00.114Z,94848.42
2019-01-24T01:50:28.597Z,94846.16
2019-01-24T01:52:56.992Z,94845.42
2019-01-24T01:55:25.521Z,94857.09
2019-01-24T01:57:54.002Z,94858.02
2019-01-24T02:00:24.939Z,94858.02
2019-01-24T02:02:53.791Z,94861.55
2019-01-24T02:05:25.105Z,94862.71
2019-01-24T02:07:53.651Z,94864.21
2019-01-24T02:10:24.011Z,94869.28
2019-01-24T02:12:52.548Z,94870.45
2019-01-24T02:15:21.298Z,94875.84
2019-01-24T02:17:50.263Z,94885.48
2019-01-24T02:20:23.682Z,94886.42
2019-01-24T02:22:52.423Z,94887.23
2019-01-24T02:25:21.186Z,94890.80
2019-01-24T02:27:52.487Z,94889.50
2019-01-24T02:30:23.664Z,94890.19
2019-01-24T02:32:52.246Z,94899.47
2019-01-24T02:35:20.720Z,94901.33
2019-01-24T02:37:49.368Z,94895.05
2019-01-24T02:40:17.903Z,94899.50
2019-01-24T02:42:46.328Z,94896.30
2019-01-24T02:45:17.806Z,94903.34
2019-01-24T02:47:46.394Z,94905.81
2019-01-24T02:50:19.621Z,94911.36
2019-01-24T02:52:48.256Z,94914.77
2019-01-24T02:55:17.029Z,94916.27
2019-01-24T02:57:45.430Z,94913.06
2019-01-24T03:00:21.538Z,94915.05
2019-01-24T03:02:50.146Z,94915.41
2019-01-24T03:05:20.191Z,94911.23
2019-01-24T03:07:49.151Z,94919.70
2019-01-24T03:10:17.630Z,94912.64
2019-01-24T03:12:46.349Z,94918.64
2019-01-24T03:15:17.299Z,94915.23
2019-01-24T03:17:45.783Z,94916.98
2019-01-24T03:20:17.021Z,94914.06
2019-01-24T03:22:46.480Z,94922.66
2019-01-24T03:25:17.389Z,94925.86
2019-01-24T03:27:45.943Z,94937.34
2019-01-24T03:30:20.169Z,94949.22
2019-01-24T03:32:48.747Z,94949.09
2019-01-24T03:35:19.833Z,94945.53
2019-01-24T03:37:48.465Z,94947.19
2019-01-24T03:40:17.346Z,94945.41
2019-01-24T03:42:45.756Z,94953.20
2019-01-24T03:45:16.795Z,94950.95
2019-01-24T03:47:45.433Z,94957.65
2019-01-24T03:50:19.204Z,94962.72
2019-01-24T03:52:48.289Z,94961.55
2019-01-24T03:55:18.731Z,94971.80
2019-01-24T03:57:47.327Z,94970.02
2019-01-24T04:00:18.518Z,94971.65
2019-01-24T04:02:46.991Z,94970.02
2019-01-24T04:05:16.443Z,94975.09
2019-01-24T04:07:45.314Z,94981.58
2019-01-24T04:10:18.425Z,94987.70
2019-01-24T04:12:47.051Z,94989.12
2019-01-24T04:15:24.035Z,94992.09
2019-01-24T04:17:52.441Z,94987.70
2019-01-24T04:20:20.987Z,94999.88
2019-01-24T04:22:49.461Z,95009.08
2019-01-24T04:25:17.864Z,95003.81
2019-01-24T04:27:46.269Z,95009.61
2019-01-24T04:30:20.378Z,95007.95
2019-01-24T04:32:49.021Z,95020.36
2019-01-24T04:35:19.916Z,95026.48
2019-01-24T04:37:48.255Z,95029.69
2019-01-24T04:40:18.379Z,95026.52
2019-01-24T04:42:46.788Z,95029.03
2019-01-24T04:45:17.141Z,95027.86
2019-01-24T04:47:45.681Z,95027.98
2019-01-24T04:50:18.516Z,95024.37
2019-01-24T04:52:47.503Z,95037.46
2019-01-24T04:55:19.665Z,95038.76
2019-01-24T04:57:48.757Z,95037.10
2019-01-24T05:00:25.886Z,95036.89
2019-01-24T05:02:54.626Z,95028.91
2019-01-24T05:08:17.210Z,95043.17
2019-01-24T05:10:45.611Z,95051.08
2019-01-24T05:13:14.031Z,95056.38
2019-01-24T05:18:16.004Z,95054.76
2019-01-24T05:20:44.411Z,95058.05
2019-01-24T05:23:12.882Z,95058.29
2019-01-24T05:25:41.248Z,95065.73
2019-01-24T05:28:09.653Z,95063.06
2019-01-24T05:30:38.092Z,95067.07
2019-01-24T05:33:06.483Z,95072.38
2019-01-24T05:35:35.149Z,95072.38
2019-01-24T05:38:05.111Z,95074.37
2019-01-24T05:40:33.512Z,95079.55
2019-01-24T05:43:01.922Z,95082.52
2019-01-24T05:48:03.892Z,95085.47
2019-01-24T05:50:51.516Z,95091.02
2019-01-24T05:53:19.927Z,95093.73
2019-01-24T05:55:48.326Z,95101.63
2019-01-24T05:58:16.842Z,95097.98
2019-01-24T06:03:34.359Z,95105.64
2019-01-24T06:06:02.766Z,95102.54
2019-01-24T06:08:31.168Z,95110.56
2019-01-24T06:10:59.668Z,95109.97
2019-01-24T06:13:28.067Z,95113.73
2019-01-24T06:15:56.506Z,95111.27
2019-01-24T06:18:24.944Z,95114.34
2019-01-24T06:20:53.415Z,95119.77
2019-01-24T06:23:21.829Z,95124.59
2019-01-24T06:25:50.349Z,95126.73
2019-01-24T06:28:18.755Z,95132.86
2019-01-24T06:30:47.224Z,95136.86
2019-01-24T06:33:15.658Z,95144.64
2019-01-24T06:35:48.755Z,95148.91
2019-01-24T06:38:14.183Z,95151.73
2019-01-24T06:40:42.612Z,95148.23
2019-01-24T06:43:11.021Z,95151.64
2019-01-24T06:45:39.433Z,95154.11
2019-01-24T06:48:27.337Z,95155.53
2019-01-24T06:50:55.739Z,95156.72
2019-01-24T06:53:24.141Z,95158.62
2019-01-24T06:58:26.944Z,95158.73
2019-01-24T07:00:55.459Z,95162.88
2019-01-24T07:03:23.869Z,95162.63
2019-01-24T07:05:55.420Z,95161.45
2019-01-24T07:08:22.431Z,95166.30
2019-01-24T07:10:50.851Z,95161.71
2019-01-24T07:13:19.270Z,95163.13
2019-01-24T07:18:21.235Z,95166.10
2019-01-24T07:20:49.717Z,95172.58
2019-01-24T07:23:18.299Z,95174.22
2019-01-24T07:25:46.705Z,95179.65
2019-01-24T07:28:15.114Z,95187.28
2019-01-24T07:33:17.557Z,95190.84
2019-01-24T07:38:19.883Z,95202.03
2019-01-24T07:40:48.283Z,95198.25
2019-01-24T07:45:51.336Z,95202.03
2019-01-24T07:48:19.762Z,95189.30
2019-01-24T07:51:07.291Z,95191.44
2019-01-24T07:53:35.735Z,95197.32
2019-01-24T07:59:12.318Z,95198.36
2019-01-24T08:01:40.730Z,95204.61
2019-01-24T08:04:09.175Z,95212.48
2019-01-24T08:06:37.661Z,95210.11
2019-01-24T08:09:45.973Z,95215.19
2019-01-24T08:14:48.391Z,95227.66
2019-01-24T08:17:16.829Z,95229.66
2019-01-24T08:19:45.240Z,95226.50
2019-01-24T08:22:13.650Z,95225.90
2019-01-24T08:24:42.088Z,95225.63
2019-01-24T08:27:10.496Z,95230.48
2019-01-24T08:29:38.902Z,95228.49
2019-01-24T08:32:07.426Z,95224.35
2019-01-24T08:34:35.838Z,95225.91
2019-01-24T08:37:04.323Z,95227.06
2019-01-24T08:39:32.742Z,95226.95
2019-01-24T08:42:01.146Z,95234.71
2019-01-24T08:44:29.554Z,95234.11
2019-01-24T08:49:31.806Z,95238.20
2019-01-24T08:52:00.266Z,95233.38
2019-01-24T08:54:28.674Z,95244.34
2019-01-24T08:56:57.070Z,95248.47
2019-01-24T08:59:29.500Z,95246.95
2019-01-24T09:01:55.614Z,95248.59
2019-01-24T09:04:24.025Z,95247.17
2019-01-24T09:06:52.449Z,95257.55
2019-01-24T09:09:20.855Z,95262.63
2019-01-24T09:11:49.263Z,95263.44
2019-01-24T09:14:37.061Z,95264.14
2019-01-24T09:17:05.478Z,95269.22
2019-01-24T09:19:33.879Z,95266.38
2019-01-24T09:24:36.771Z,95269.76
2019-01-24T09:29:39.689Z,95273.17
2019-01-24T09:32:08.266Z,95286.16
2019-01-24T09:34:36.666Z,95281.23
2019-01-24T09:37:05.205Z,95283.08
2019-01-24T09:39:33.635Z,95288.25
2019-01-24T09:42:02.038Z,95293.91
2019-01-24T09:44:30.447Z,95296.96
2019-01-24T09:49:32.553Z,95298.20
2019-01-24T09:54:34.583Z,95305.98
2019-01-24T09:57:03.098Z,95312.11
2019-01-24T09:59:31.498Z,95315.30
2019-01-24T10:01:59.894Z,95318.10
2019-01-24T10:04:28.399Z,95321.49
2019-01-24T10:06:56.804Z,95315.58
2019-01-24T10:09:25.206Z,95316.63
2019-01-24T10:11:53.726Z,95316.73
2019-01-24T10:14:22.122Z,95319.78
2019-01-24T10:16:50.529Z,95318.96
2019-01-24T10:19:19.045Z,95320.27
2019-01-24T10:21:47.443Z,95314.34
2019-01-24T10:24:15.847Z,95316.82
2019-01-24T10:29:18.342Z,95317.61
2019-01-24T10:31:46.858Z,95315.22
2019-01-24T10:34:15.335Z,95315.31
2019-01-24T10:36:43.814Z,95314.83
2019-01-24T10:41:46.839Z,95315.91
2019-01-24T10:44:15.306Z,95311.97
2019-01-24T10:46:43.709Z,95319.48
2019-01-24T10:49:12.105Z,95313.64
2019-01-24T10:54:14.266Z,95316.37
2019-01-24T10:59:16.707Z,95309.91
2019-01-24T11:01:45.150Z,95308.88
2019-01-24T11:04:13.546Z,95306.84
2019-01-24T11:06:41.958Z,95309.20
2019-01-24T11:09:50.301Z,95307.48
2019-01-24T11:12:18.695Z,95307.56
2019-01-24T11:14:47.118Z,95306.70
2019-01-24T11:19:49.045Z,95306.36
2019-01-24T11:22:17.440Z,95298.98
2019-01-24T11:24:45.872Z,95297.83
2019-01-24T11:27:14.270Z,95289.70
2019-01-24T11:29:42.668Z,95296.34
2019-01-24T11:35:43.953Z,95293.19
2019-01-24T11:48:28.535Z,95292.09
2019-01-24T11:53:30.545Z,95280.77
2019-01-24T11:55:58.964Z,95272.56
2019-01-24T11:58:27.359Z,95276.66
2019-01-24T12:03:44.939Z,95284.45
2019-01-24T12:06:13.332Z,95286.16
2019-01-24T12:08:41.735Z,95290.27
2019-01-24T12:14:03.280Z,95292.44
2019-01-24T12:16:31.712Z,95288.64
2019-01-24T12:19:00.101Z,95294.89
2019-01-24T12:21:28.526Z,95290.79
2019-01-24T12:23:56.962Z,95294.21
2019-01-24T12:26:25.381Z,95285.08
2019-01-24T12:31:46.948Z,95294.97
2019-01-24T12:34:15.402Z,95298.56
2019-01-24T12:36:43.804Z,95296.09
2019-01-24T12:39:12.206Z,95294.78
2019-01-24T12:41:40.628Z,95297.39
2019-01-24T12:44:09.023Z,95296.35
2019-01-24T12:46:37.424Z,95294.18
2019-01-24T12:51:40.370Z,95298.49
2019-01-24T12:54:08.806Z,95300.77
2019-01-24T12:56:37.202Z,95301.59
2019-01-24T12:59:05.604Z,95303.88
2019-01-24T13:01:34.026Z,95305.63
2019-01-24T13:04:02.427Z,95300.72
2019-01-24T13:06:30.834Z,95299.67
2019-01-24T13:08:59.267Z,95299.75
2019-01-24T13:11:27.739Z,95306.08
2019-01-24T13:13:56.144Z,95308.95
2019-01-24T13:18:58.933Z,95307.58
2019-01-24T13:21:27.370Z,95312.47
2019-01-24T13:23:55.771Z,95310.19
2019-01-24T13:26:24.225Z,95314.09
2019-01-24T13:29:05.386Z,95316.38
2019-01-24T13:31:33.788Z,95318.37
2019-01-24T13:34:02.184Z,95316.99
2019-01-24T13:39:44.985Z,95320.27
2019-01-24T13:44:47.787Z,95322.11
2019-01-24T13:47:16.305Z,95323.80
2019-01-24T13:49:44.705Z,95322.14
2019-01-24T13:52:13.107Z,95320.69
2019-01-24T13:57:16.124Z,95327.61
2019-01-24T14:02:18.316Z,95328.82
2019-01-24T14:04:46.751Z,95336.11
2019-01-24T14:07:46.306Z,95334.69
2019-01-24T14:10:44.418Z,95343.28
2019-01-24T14:13:12.816Z,95344.04
2019-01-24T14:15:41.219Z,95339.80
2019-01-24T14:18:40.807Z,95343.13
2019-01-24T14:20:59.076Z,95349.90
2019-01-24T14:23:27.478Z,95350.44
2019-01-24T14:25:55.913Z,95354.59
2019-01-24T14:28:43.644Z,95356.47
2019-01-24T14:33:53.040Z,95358.55
2019-01-24T14:36:40.662Z,95361.09
2019-01-24T14:39:48.989Z,95363.16
2019-01-24T14:42:17.424Z,95370.07
2019-01-24T14:44:45.816Z,95373.72
2019-01-24T14:47:14.215Z,95369.39
2019-01-24T14:49:42.659Z,95368.84
2019-01-24T14:52:30.399Z,95373.98
2019-01-24T14:54:58.855Z,95373.44
2019-01-24T14:57:27.240Z,95379.27
2019-01-24T14:59:55.646Z,95378.12
2019-01-24T15:04:58.053Z,95379.75
2019-01-24T15:07:26.464Z,95383.59
2019-01-24T15:10:14.189Z,95388.80
2019-01-24T15:12:42.587Z,95387.14
2019-01-24T15:15:51.262Z,95387.43
2019-01-24T15:18:19.674Z,95388.86
2019-01-24T15:23:41.842Z,95390.58
2019-01-24T15:26:29.598Z,95391.03
2019-01-24T15:28:58.006Z,95394.48
2019-01-24T15:31:26.422Z,95396.73
2019-01-24T15:33:54.867Z,95404.22
2019-01-24T15:36:23.263Z,95405.53
2019-01-24T15:38:51.666Z,95407.28
2019-01-24T15:43:54.393Z,95407.57
2019-01-24T15:46:22.816Z,95413.23
2019-01-24T15:48:51.220Z,95414.55
2019-01-24T15:51:19.618Z,95421.41
2019-01-24T15:54:07.367Z,95415.72
2019-01-24T15:56:35.777Z,95422.72
2019-01-24T15:59:04.233Z,95425.81
2019-01-24T16:01:32.656Z,95431.27
2019-01-24T16:04:01.058Z,95437.22
2019-01-24T16:06:48.844Z,95439.27
2019-01-24T16:09:17.240Z,95440.85
2019-01-24T16:11:45.642Z,95446.19
2019-01-24T16:16:48.595Z,95446.92
2019-01-24T16:21:51.305Z,95454.33
2019-01-24T16:24:19.756Z,95453.61
2019-01-24T16:26:48.228Z,95455.88
2019-01-24T16:29:16.627Z,95462.52
2019-01-24T16:31:45.048Z,95463.12
2019-01-24T16:34:13.465Z,95469.16
2019-01-24T16:36:41.873Z,95468.01
2019-01-24T16:39:10.332Z,95476.76
2019-01-24T16:41:58.058Z,95472.85
2019-01-24T16:44:26.523Z,95472.37
2019-01-24T16:46:54.924Z,95481.48
2019-01-24T16:49:23.400Z,95476.39
2019-01-24T16:51:51.828Z,95481.40
2019-01-24T16:54:20.226Z,95480.83
2019-01-24T16:56:48.628Z,95488.92
2019-01-24T16:59:17.064Z,95490.47
2019-01-24T17:01:45.462Z,95492.05
2019-01-24T17:04:13.869Z,95496.07
2019-01-24T17:06:42.284Z,95493.92
2019-01-24T17:09:50.592Z,95493.59
2019-01-24T17:12:19.032Z,95496.53
2019-01-24T17:14:47.444Z,95495.38
2019-01-24T17:17:15.844Z,95498.44
2019-01-24T17:22:18.210Z,95508.03
2019-01-24T17:24:46.618Z,95502.49
2019-01-24T17:27:15.060Z,95503.44
2019-01-24T17:29:43.476Z,95506.16
2019-01-24T17:32:11.880Z,95506.77
2019-01-24T17:34:40.315Z,95511.97
2019-01-24T17:37:08.796Z,95516.00
2019-01-24T17:39:37.206Z,95511.87
2019-01-24T17:42:05.639Z,95514.15
2019-01-24T17:44:34.048Z,95514.76
2019-01-24T17:47:21.665Z,95521.27
2019-01-24T17:49:51.539Z,95518.78
2019-01-24T17:52:20.186Z,95521.02
2019-01-24T17:54:48.624Z,95518.91
2019-01-24T17:57:17.025Z,95525.89
2019-01-24T17:59:45.427Z,95533.34
2019-01-24T18:04:47.557Z,95534.91
2019-01-24T18:09:49.915Z,95541.86
2019-01-24T18:12:18.386Z,95548.98
2019-01-24T18:14:46.782Z,95553.27
2019-01-24T18:17:15.198Z,95555.66
2019-01-24T18:19:43.625Z,95556.23
2019-01-24T18:22:12.039Z,95557.53
2019-01-24T18:24:40.444Z,95558.61
2019-01-24T18:27:08.864Z,95560.03
2019-01-24T18:29:37.274Z,95562.73
2019-01-24T18:32:45.727Z,95567.70
2019-01-24T18:35:54.047Z,95566.28
2019-01-24T18:40:56.819Z,95567.46
2019-01-24T18:43:25.317Z,95564.40
2019-01-24T18:46:33.661Z,95573.05
2019-01-24T18:49:02.127Z,95570.34
2019-01-24T18:51:30.542Z,95579.23
2019-01-24T18:53:58.948Z,95580.05
2019-01-24T18:56:48.218Z,95582.16
2019-01-24T18:59:16.855Z,95579.72
2019-01-24T19:01:45.265Z,95584.91
2019-01-24T19:04:13.691Z,95582.91
2019-01-24T19:06:42.107Z,95588.57
2019-01-24T19:09:50.464Z,95595.33
2019-01-24T19:12:18.872Z,95597.67
2019-01-24T19:14:47.287Z,95606.56
2019-01-24T19:17:15.723Z,95607.75
2019-01-24T19:19:44.134Z,95611.88
2019-01-24T19:22:12.534Z,95614.38
2019-01-24T19:24:41.006Z,95619.59
2019-01-24T19:27:09.357Z,95631.30
2019-01-24T19:29:37.769Z,95625.06
2019-01-24T19:32:06.211Z,95622.70
2019-01-24T19:34:34.620Z,95621.06
2019-01-24T19:37:03.022Z,95625.56
2019-01-24T19:39:31.494Z,95632.17
2019-01-24T19:41:59.898Z,95635.97
2019-01-24T19:44:28.303Z,95638.09
2019-01-24T19:49:30.661Z,95639.39
2019-01-24T19:54:32.629Z,95656.98
2019-01-24T19:57:20.699Z,95663.74
2019-01-24T19:59:49.109Z,95658.43
2019-01-24T20:02:17.538Z,95664.55
2019-01-24T20:04:46.055Z,95666.45
2019-01-24T20:07:14.465Z,95668.67
2019-01-24T20:09:42.882Z,95672.34
2019-01-24T20:12:11.356Z,95671.30
2019-01-24T20:14:39.784Z,95677.31
2019-01-24T20:17:27.538Z,95685.34
2019-01-24T20:19:56.214Z,95679.44
2019-01-24T20:22:24.631Z,95687.00
2019-01-24T20:24:53.125Z,95688.04
2019-01-24T20:27:21.541Z,95687.81
2019-01-24T20:30:09.302Z,95689.81
2019-01-24T20:32:37.711Z,95689.58
2019-01-24T20:35:46.063Z,95695.36
2019-01-24T20:38:14.472Z,95696.19
2019-01-24T20:41:02.249Z,95698.80
2019-01-24T20:43:35.372Z,95700.10
2019-01-24T20:46:00.786Z,95711.20
2019-01-24T20:48:29.252Z,95713.09
2019-01-24T20:50:57.655Z,95721.82
2019-01-24T20:53:45.321Z,95716.06
2019-01-24T20:56:13.747Z,95719.48
2019-01-24T20:58:42.159Z,95727.17
2019-01-24T21:01:29.987Z,95723.39
2019-01-24T21:03:58.405Z,95724.09
2019-01-24T21:06:26.816Z,95729.64
2019-01-24T21:08:55.251Z,95727.75
2019-01-24T21:11:23.673Z,95723.03
2019-01-24T21:13:52.087Z,95725.73
2019-01-24T21:18:54.323Z,95728.45
2019-01-24T21:21:22.775Z,95730.48
2019-01-24T21:23:51.180Z,95732.84
2019-01-24T21:26:19.604Z,95733.91
2019-01-24T21:28:48.043Z,95736.41
2019-01-24T21:31:16.461Z,95734.63
2019-01-24T21:33:44.877Z,95743.26
2019-01-24T21:38:47.315Z,95751.66
2019-01-24T21:43:50.161Z,95754.14
2019-01-24T21:46:18.595Z,95759.56
2019-01-24T21:49:06.312Z,95762.64
2019-01-24T21:51:34.774Z,95756.95
2019-01-24T21:54:03.183Z,95766.41
2019-01-24T21:56:31.595Z,95761.80
2019-01-24T21:59:00.073Z,95764.25
2019-01-24T22:01:28.479Z,95768.73
2019-01-24T22:03:56.897Z,95770.63
2019-01-24T22:06:25.377Z,95772.88
2019-01-24T22:09:13.031Z,95767.89
2019-01-24T22:14:15.914Z,95775.34
2019-01-24T22:16:44.355Z,95772.04
2019-01-24T22:19:12.770Z,95767.43
2019-01-24T22:21:41.172Z,95773.92
2019-01-24T22:26:43.593Z,95781.23
2019-01-24T22:31:46.256Z,95784.34
2019-01-24T22:36:48.382Z,95787.29
2019-01-24T22:39:16.896Z,95782.91
2019-01-24T22:41:45.299Z,95788.70
2019-01-24T22:44:13.705Z,95792.25
2019-01-24T22:46:54.952Z,95790.48
2019-01-24T22:49:23.359Z,95790.37
2019-01-24T22:51:51.763Z,95782.47
2019-01-24T22:56:54.145Z,95795.45
2019-01-24T22:59:22.551Z,95790.97
2019-01-24T23:02:30.903Z,95785.30
2019-01-24T23:04:59.310Z,95794.02
2019-01-24T23:07:27.715Z,95789.41
2019-01-24T23:09:56.368Z,95789.52
2019-01-24T23:12:24.723Z,95791.99
2019-01-24T23:14:53.139Z,95788.08
2019-01-24T23:17:21.573Z,95796.22
2019-01-24T23:19:49.981Z,95795.28
2019-01-24T23:22:18.395Z,95788.41
2019-01-24T23:24:46.915Z,95789.61
2019-01-24T23:27:15.317Z,95798.56
2019-01-24T23:29:43.727Z,95792.27
2019-01-24T23:32:12.279Z,95800.03
2019-01-24T23:34:40.859Z,95801.59
2019-01-24T23:37:09.259Z,95804.20
2019-01-24T23:39:37.695Z,95802.19
2019-01-24T23:42:06.099Z,95801.09
2019-01-24T23:44:34.499Z,95803.35
2019-01-24T23:47:02.935Z,95800.59
2019-01-24T23:49:31.342Z,95807.56
2019-01-24T23:51:59.751Z,95807.94
2019-01-24T23:54:28.387Z,95806.50
2019-01-24T23:56:56.791Z,95813.44
2019-01-24T23:59:26.847Z,95813.20
